sensor_id;sensor_type;location;lat;lon;timestamp;pressure;altitude;pressure_sealevel;temperature;humidity
20019;BME280;10170;42.502;26.526;2023-04-06T00:00:36;99357.06;;;7.92;100.00
20019;BME280;10170;42.502;26.526;2023-04-06T00:03:03;99352.22;;;8.02;100.00
20019;BME280;10170;42.502;26.526;2023-04-06T00:05:30;99357.44;;;7.89;100.00
20019;BME280;10170;42.502;26.526;2023-04-06T00:07:57;99351.72;;;7.86;100.00
20019;BME280;10170;42.502;26.526;2023-04-06T00:10:25;99344.31;;;7.68;100.00
20019;BME280;10170;42.502;26.526;2023-04-06T00:12:52;99355.91;;;7.67;100.00
20019;BME280;10170;42.502;26.526;2023-04-06T00:15:19;99354.97;;;7.81;100.00
20019;BME280;10170;42.502;26.526;2023-04-06T00:17:46;99350.56;;;7.61;100.00
20019;BME280;10170;42.502;26.526;2023-04-06T00:20:13;99350.22;;;7.70;100.00
20019;BME280;10170;42.502;26.526;2023-04-06T00:22:40;99337.41;;;7.74;100.00
20019;BME280;10170;42.502;26.526;2023-04-06T00:25:07;99350.97;;;7.58;100.00
20019;BME280;10170;42.502;26.526;2023-04-06T00:27:34;99346.56;;;7.71;100.00
20019;BME280;10170;42.502;26.526;2023-04-06T00:30:01;99339.97;;;7.61;100.00
20019;BME280;10170;42.502;26.526;2023-04-06T00:32:28;99335.47;;;7.55;100.00
20019;BME280;10170;42.502;26.526;2023-04-06T00:34:55;99342.81;;;7.31;100.00
20019;BME280;10170;42.502;26.526;2023-04-06T00:37:22;99332.50;;;7.36;100.00
20019;BME280;10170;42.502;26.526;2023-04-06T00:39:48;99316.81;;;7.07;100.00
20019;BME280;10170;42.502;26.526;2023-04-06T00:42:18;99340.91;;;7.19;100.00
20019;BME280;10170;42.502;26.526;2023-04-06T00:44:56;99348.50;;;7.28;100.00
20019;BME280;10170;42.502;26.526;2023-04-06T00:47:24;99344.28;;;7.34;100.00
20019;BME280;10170;42.502;26.526;2023-04-06T00:49:53;99341.53;;;7.21;100.00
20019;BME280;10170;42.502;26.526;2023-04-06T00:52:20;99344.00;;;7.01;100.00
20019;BME280;10170;42.502;26.526;2023-04-06T00:54:48;99343.25;;;7.07;100.00
20019;BME280;10170;42.502;26.526;2023-04-06T00:57:15;99349.88;;;7.24;100.00
20019;BME280;10170;42.502;26.526;2023-04-06T00:59:42;99336.19;;;7.14;100.00
20019;BME280;10170;42.502;26.526;2023-04-06T01:02:09;99325.00;;;7.12;100.00
20019;BME280;10170;42.502;26.526;2023-04-06T01:04:36;99325.22;;;7.17;100.00
20019;BME280;10170;42.502;26.526;2023-04-06T01:07:03;99334.63;;;7.20;100.00
20019;BME280;10170;42.502;26.526;2023-04-06T01:09:30;99328.44;;;7.40;100.00
20019;BME280;10170;42.502;26.526;2023-04-06T01:11:57;99323.72;;;7.29;100.00
20019;BME280;10170;42.502;26.526;2023-04-06T01:14:25;99337.44;;;7.46;100.00
20019;BME280;10170;42.502;26.526;2023-04-06T01:16:52;99317.97;;;7.54;100.00
20019;BME280;10170;42.502;26.526;2023-04-06T01:19:19;99324.19;;;7.39;100.00
20019;BME280;10170;42.502;26.526;2023-04-06T01:21:47;99317.31;;;7.17;100.00
20019;BME280;10170;42.502;26.526;2023-04-06T01:24:16;99314.84;;;7.43;100.00
20019;BME280;10170;42.502;26.526;2023-04-06T01:26:43;99312.88;;;7.52;100.00
20019;BME280;10170;42.502;26.526;2023-04-06T01:29:11;99318.59;;;7.28;100.00
20019;BME280;10170;42.502;26.526;2023-04-06T01:31:38;99316.50;;;7.51;100.00
20019;BME280;10170;42.502;26.526;2023-04-06T01:34:06;99320.47;;;7.34;100.00
20019;BME280;10170;42.502;26.526;2023-04-06T01:36:33;99312.53;;;7.34;100.00
20019;BME280;10170;42.502;26.526;2023-04-06T01:38:59;99315.31;;;7.54;100.00
20019;BME280;10170;42.502;26.526;2023-04-06T01:41:26;99319.84;;;7.60;100.00
20019;BME280;10170;42.502;26.526;2023-04-06T01:43:53;99311.50;;;7.63;100.00
20019;BME280;10170;42.502;26.526;2023-04-06T01:46:21;99317.41;;;7.65;100.00
20019;BME280;10170;42.502;26.526;2023-04-06T01:48:48;99320.47;;;7.62;100.00
20019;BME280;10170;42.502;26.526;2023-04-06T01:51:15;99304.50;;;7.48;100.00
20019;BME280;10170;42.502;26.526;2023-04-06T01:53:42;99291.81;;;7.37;100.00
20019;BME280;10170;42.502;26.526;2023-04-06T01:56:09;99302.91;;;7.54;100.00
20019;BME280;10170;42.502;26.526;2023-04-06T01:58:35;99301.56;;;7.37;100.00
20019;BME280;10170;42.502;26.526;2023-04-06T02:01:02;99314.22;;;7.41;100.00
20019;BME280;10170;42.502;26.526;2023-04-06T02:03:29;99305.03;;;7.37;100.00
20019;BME280;10170;42.502;26.526;2023-04-06T02:05:57;99308.97;;;7.48;100.00
20019;BME280;10170;42.502;26.526;2023-04-06T02:08:24;99299.78;;;7.44;100.00
20019;BME280;10170;42.502;26.526;2023-04-06T02:10:50;99294.25;;;7.39;100.00
20019;BME280;10170;42.502;26.526;2023-04-06T02:13:17;99310.66;;;7.56;100.00
20019;BME280;10170;42.502;26.526;2023-04-06T02:15:44;99296.47;;;7.35;100.00
20019;BME280;10170;42.502;26.526;2023-04-06T02:18:11;99301.91;;;7.00;100.00
20019;BME280;10170;42.502;26.526;2023-04-06T02:20:38;99293.31;;;6.91;100.00
20019;BME280;10170;42.502;26.526;2023-04-06T02:23:04;99291.81;;;6.82;100.00
20019;BME280;10170;42.502;26.526;2023-04-06T02:25:31;99286.50;;;6.76;100.00
20019;BME280;10170;42.502;26.526;2023-04-06T02:27:58;99280.31;;;6.69;100.00
20019;BME280;10170;42.502;26.526;2023-04-06T02:30:24;99288.41;;;6.67;100.00
20019;BME280;10170;42.502;26.526;2023-04-06T02:32:51;99294.28;;;6.42;100.00
20019;BME280;10170;42.502;26.526;2023-04-06T02:35:18;99294.53;;;6.47;100.00
20019;BME280;10170;42.502;26.526;2023-04-06T02:37:45;99290.97;;;6.18;100.00
20019;BME280;10170;42.502;26.526;2023-04-06T02:40:13;99289.16;;;6.19;100.00
20019;BME280;10170;42.502;26.526;2023-04-06T02:42:40;99293.47;;;6.05;100.00
20019;BME280;10170;42.502;26.526;2023-04-06T02:45:07;99284.22;;;5.80;100.00
20019;BME280;10170;42.502;26.526;2023-04-06T02:47:34;99290.22;;;5.74;100.00
20019;BME280;10170;42.502;26.526;2023-04-06T02:50:01;99295.50;;;5.45;100.00
20019;BME280;10170;42.502;26.526;2023-04-06T02:52:28;99297.69;;;5.42;100.00
20019;BME280;10170;42.502;26.526;2023-04-06T02:54:54;99299.69;;;5.54;100.00
20019;BME280;10170;42.502;26.526;2023-04-06T02:57:21;99306.50;;;5.49;100.00
20019;BME280;10170;42.502;26.526;2023-04-06T02:59:48;99307.69;;;5.31;100.00
20019;BME280;10170;42.502;26.526;2023-04-06T03:02:15;99314.38;;;5.05;100.00
20019;BME280;10170;42.502;26.526;2023-04-06T03:04:42;99303.44;;;4.93;100.00
20019;BME280;10170;42.502;26.526;2023-04-06T03:07:09;99306.34;;;4.84;100.00
20019;BME280;10170;42.502;26.526;2023-04-06T03:09:39;99303.06;;;4.82;100.00
20019;BME280;10170;42.502;26.526;2023-04-06T03:12:06;99313.50;;;4.90;100.00
20019;BME280;10170;42.502;26.526;2023-04-06T03:14:35;99319.38;;;5.00;100.00
20019;BME280;10170;42.502;26.526;2023-04-06T03:17:02;99315.94;;;4.77;100.00
20019;BME280;10170;42.502;26.526;2023-04-06T03:19:28;99331.78;;;4.69;100.00
20019;BME280;10170;42.502;26.526;2023-04-06T03:21:55;99332.56;;;4.55;100.00
20019;BME280;10170;42.502;26.526;2023-04-06T03:24:22;99320.00;;;4.34;100.00
20019;BME280;10170;42.502;26.526;2023-04-06T03:26:49;99339.34;;;4.18;100.00
20019;BME280;10170;42.502;26.526;2023-04-06T03:29:15;99336.72;;;4.18;100.00
20019;BME280;10170;42.502;26.526;2023-04-06T03:31:42;99339.63;;;4.32;100.00
20019;BME280;10170;42.502;26.526;2023-04-06T03:34:09;99343.75;;;4.26;100.00
20019;BME280;10170;42.502;26.526;2023-04-06T03:36:35;99340.00;;;4.20;100.00
20019;BME280;10170;42.502;26.526;2023-04-06T03:39:03;99328.19;;;4.16;100.00
20019;BME280;10170;42.502;26.526;2023-04-06T03:41:30;99338.44;;;4.03;100.00
20019;BME280;10170;42.502;26.526;2023-04-06T03:43:57;99338.41;;;4.11;100.00
20019;BME280;10170;42.502;26.526;2023-04-06T03:46:23;99334.94;;;4.11;100.00
20019;BME280;10170;42.502;26.526;2023-04-06T03:48:50;99337.56;;;4.11;100.00
20019;BME280;10170;42.502;26.526;2023-04-06T03:51:17;99341.47;;;4.23;100.00
20019;BME280;10170;42.502;26.526;2023-04-06T03:53:43;99343.88;;;4.02;100.00
20019;BME280;10170;42.502;26.526;2023-04-06T03:56:10;99341.59;;;3.99;100.00
20019;BME280;10170;42.502;26.526;2023-04-06T03:58:37;99345.69;;;4.01;100.00
20019;BME280;10170;42.502;26.526;2023-04-06T04:01:04;99344.88;;;4.01;100.00
20019;BME280;10170;42.502;26.526;2023-04-06T04:03:30;99353.59;;;4.01;100.00
20019;BME280;10170;42.502;26.526;2023-04-06T04:05:57;99359.16;;;4.06;100.00
20019;BME280;10170;42.502;26.526;2023-04-06T04:08:24;99358.88;;;3.93;100.00
20019;BME280;10170;42.502;26.526;2023-04-06T04:10:51;99358.38;;;3.90;100.00
20019;BME280;10170;42.502;26.526;2023-04-06T04:13:18;99351.53;;;3.81;100.00
20019;BME280;10170;42.502;26.526;2023-04-06T04:15:45;99364.44;;;3.98;100.00
20019;BME280;10170;42.502;26.526;2023-04-06T04:18:14;99366.16;;;3.83;100.00
20019;BME280;10170;42.502;26.526;2023-04-06T04:20:41;99368.13;;;3.73;100.00
20019;BME280;10170;42.502;26.526;2023-04-06T04:23:08;99355.94;;;3.80;100.00
20019;BME280;10170;42.502;26.526;2023-04-06T04:25:34;99365.97;;;3.85;100.00
20019;BME280;10170;42.502;26.526;2023-04-06T04:28:02;99358.88;;;3.93;100.00
20019;BME280;10170;42.502;26.526;2023-04-06T04:30:28;99354.91;;;3.97;100.00
20019;BME280;10170;42.502;26.526;2023-04-06T04:32:55;99362.28;;;4.02;100.00
20019;BME280;10170;42.502;26.526;2023-04-06T04:35:22;99354.91;;;3.97;100.00
20019;BME280;10170;42.502;26.526;2023-04-06T04:37:49;99350.41;;;4.14;100.00
20019;BME280;10170;42.502;26.526;2023-04-06T04:40:16;99333.78;;;4.13;100.00
20019;BME280;10170;42.502;26.526;2023-04-06T04:42:43;99339.16;;;4.20;100.00
20019;BME280;10170;42.502;26.526;2023-04-06T04:45:11;99341.53;;;4.38;100.00
20019;BME280;10170;42.502;26.526;2023-04-06T04:47:38;99339.44;;;4.33;100.00
20019;BME280;10170;42.502;26.526;2023-04-06T04:50:05;99349.50;;;4.52;100.00
20019;BME280;10170;42.502;26.526;2023-04-06T04:52:32;99354.38;;;4.63;100.00
20019;BME280;10170;42.502;26.526;2023-04-06T04:54:58;99351.16;;;4.76;100.00
20019;BME280;10170;42.502;26.526;2023-04-06T04:57:25;99351.75;;;4.63;100.00
20019;BME280;10170;42.502;26.526;2023-04-06T04:59:52;99355.13;;;4.72;100.00
20019;BME280;10170;42.502;26.526;2023-04-06T05:02:20;99363.56;;;4.67;100.00
20019;BME280;10170;42.502;26.526;2023-04-06T05:04:47;99364.81;;;4.49;100.00
20019;BME280;10170;42.502;26.526;2023-04-06T05:07:14;99350.63;;;4.35;100.00
20019;BME280;10170;42.502;26.526;2023-04-06T05:09:41;99362.09;;;4.42;100.00
20019;BME280;10170;42.502;26.526;2023-04-06T05:12:08;99352.66;;;4.48;100.00
20019;BME280;10170;42.502;26.526;2023-04-06T05:14:35;99344.59;;;4.49;100.00
20019;BME280;10170;42.502;26.526;2023-04-06T05:17:02;99334.75;;;4.43;100.00
20019;BME280;10170;42.502;26.526;2023-04-06T05:19:29;99348.16;;;4.34;100.00
20019;BME280;10170;42.502;26.526;2023-04-06T05:21:56;99348.28;;;4.40;100.00
20019;BME280;10170;42.502;26.526;2023-04-06T05:24:23;99341.03;;;4.42;100.00
20019;BME280;10170;42.502;26.526;2023-04-06T05:26:50;99330.38;;;4.36;100.00
20019;BME280;10170;42.502;26.526;2023-04-06T05:29:18;99343.25;;;4.76;100.00
20019;BME280;10170;42.502;26.526;2023-04-06T05:31:45;99341.09;;;4.79;100.00
20019;BME280;10170;42.502;26.526;2023-04-06T05:34:12;99323.94;;;4.83;100.00
20019;BME280;10170;42.502;26.526;2023-04-06T05:36:39;99336.56;;;5.10;100.00
20019;BME280;10170;42.502;26.526;2023-04-06T05:39:07;99332.31;;;5.38;100.00
20019;BME280;10170;42.502;26.526;2023-04-06T05:41:34;99332.16;;;5.55;100.00
20019;BME280;10170;42.502;26.526;2023-04-06T05:44:01;99325.88;;;5.70;100.00
20019;BME280;10170;42.502;26.526;2023-04-06T05:46:27;99333.81;;;5.85;100.00
20019;BME280;10170;42.502;26.526;2023-04-06T05:48:54;99323.53;;;5.61;100.00
20019;BME280;10170;42.502;26.526;2023-04-06T05:51:21;99334.81;;;5.84;100.00
20019;BME280;10170;42.502;26.526;2023-04-06T05:53:48;99334.34;;;5.66;100.00
20019;BME280;10170;42.502;26.526;2023-04-06T05:56:15;99330.53;;;5.68;100.00
20019;BME280;10170;42.502;26.526;2023-04-06T05:58:42;99323.34;;;5.77;100.00
20019;BME280;10170;42.502;26.526;2023-04-06T06:01:08;99331.41;;;6.04;100.00
20019;BME280;10170;42.502;26.526;2023-04-06T06:03:36;99331.81;;;5.87;100.00
20019;BME280;10170;42.502;26.526;2023-04-06T06:06:03;99331.78;;;5.72;100.00
20019;BME280;10170;42.502;26.526;2023-04-06T06:08:31;99334.88;;;5.76;100.00
20019;BME280;10170;42.502;26.526;2023-04-06T06:10:57;99329.97;;;5.73;100.00
20019;BME280;10170;42.502;26.526;2023-04-06T06:13:24;99329.78;;;5.74;100.00
20019;BME280;10170;42.502;26.526;2023-04-06T06:15:51;99328.78;;;5.75;100.00
20019;BME280;10170;42.502;26.526;2023-04-06T06:18:18;99331.41;;;5.46;100.00
20019;BME280;10170;42.502;26.526;2023-04-06T06:20:45;99330.88;;;5.65;100.00
20019;BME280;10170;42.502;26.526;2023-04-06T06:23:12;99323.25;;;5.85;100.00
20019;BME280;10170;42.502;26.526;2023-04-06T06:25:39;99318.22;;;6.04;100.00
20019;BME280;10170;42.502;26.526;2023-04-06T06:28:06;99322.94;;;6.45;100.00
20019;BME280;10170;42.502;26.526;2023-04-06T06:30:32;99323.41;;;6.48;100.00
20019;BME280;10170;42.502;26.526;2023-04-06T06:32:59;99333.66;;;6.79;100.00
20019;BME280;10170;42.502;26.526;2023-04-06T06:35:26;99338.78;;;6.45;100.00
20019;BME280;10170;42.502;26.526;2023-04-06T06:37:53;99342.38;;;6.58;100.00
20019;BME280;10170;42.502;26.526;2023-04-06T06:40:20;99343.56;;;6.98;100.00
20019;BME280;10170;42.502;26.526;2023-04-06T06:42:50;99348.69;;;7.27;100.00
20019;BME280;10170;42.502;26.526;2023-04-06T06:45:18;99347.31;;;7.31;100.00
20019;BME280;10170;42.502;26.526;2023-04-06T06:47:45;99346.34;;;7.38;100.00
20019;BME280;10170;42.502;26.526;2023-04-06T06:50:12;99349.66;;;7.47;100.00
20019;BME280;10170;42.502;26.526;2023-04-06T06:52:39;99358.44;;;6.99;100.00
20019;BME280;10170;42.502;26.526;2023-04-06T06:55:07;99357.72;;;6.90;100.00
20019;BME280;10170;42.502;26.526;2023-04-06T06:57:34;99346.78;;;7.42;100.00
20019;BME280;10170;42.502;26.526;2023-04-06T07:00:01;99358.69;;;7.87;100.00
20019;BME280;10170;42.502;26.526;2023-04-06T07:02:28;99360.78;;;8.51;100.00
20019;BME280;10170;42.502;26.526;2023-04-06T07:04:55;99355.34;;;8.86;100.00
20019;BME280;10170;42.502;26.526;2023-04-06T07:07:22;99364.72;;;8.69;100.00
20019;BME280;10170;42.502;26.526;2023-04-06T07:09:48;99367.72;;;8.52;100.00
20019;BME280;10170;42.502;26.526;2023-04-06T07:12:15;99370.75;;;8.43;100.00
20019;BME280;10170;42.502;26.526;2023-04-06T07:14:43;99368.38;;;8.68;100.00
20019;BME280;10170;42.502;26.526;2023-04-06T07:17:09;99380.47;;;8.96;100.00
20019;BME280;10170;42.502;26.526;2023-04-06T07:19:36;99375.75;;;8.72;100.00
20019;BME280;10170;42.502;26.526;2023-04-06T07:22:03;99372.72;;;8.82;100.00
20019;BME280;10170;42.502;26.526;2023-04-06T07:24:31;99371.09;;;9.13;100.00
20019;BME280;10170;42.502;26.526;2023-04-06T07:27:00;99366.63;;;9.20;100.00
20019;BME280;10170;42.502;26.526;2023-04-06T07:29:28;99357.25;;;9.05;100.00
20019;BME280;10170;42.502;26.526;2023-04-06T07:31:55;99375.38;;;9.14;100.00
20019;BME280;10170;42.502;26.526;2023-04-06T07:34:22;99366.19;;;9.43;100.00
20019;BME280;10170;42.502;26.526;2023-04-06T07:36:49;99370.28;;;9.45;100.00
20019;BME280;10170;42.502;26.526;2023-04-06T07:39:16;99373.25;;;10.14;100.00
20019;BME280;10170;42.502;26.526;2023-04-06T07:41:43;99373.84;;;10.98;100.00
20019;BME280;10170;42.502;26.526;2023-04-06T07:44:10;99379.03;;;9.85;100.00
20019;BME280;10170;42.502;26.526;2023-04-06T07:46:37;99381.66;;;9.98;100.00
20019;BME280;10170;42.502;26.526;2023-04-06T07:49:04;99378.63;;;9.82;100.00
20019;BME280;10170;42.502;26.526;2023-04-06T07:51:31;99373.88;;;9.97;100.00
20019;BME280;10170;42.502;26.526;2023-04-06T07:53:57;99388.19;;;10.09;100.00
20019;BME280;10170;42.502;26.526;2023-04-06T07:56:25;99379.38;;;10.08;100.00
20019;BME280;10170;42.502;26.526;2023-04-06T07:58:52;99373.97;;;9.51;100.00
20019;BME280;10170;42.502;26.526;2023-04-06T08:01:22;99381.06;;;10.47;100.00
20019;BME280;10170;42.502;26.526;2023-04-06T08:03:48;99373.81;;;10.67;100.00
20019;BME280;10170;42.502;26.526;2023-04-06T08:06:17;99376.38;;;10.87;100.00
20019;BME280;10170;42.502;26.526;2023-04-06T08:08:43;99383.00;;;11.33;100.00
20019;BME280;10170;42.502;26.526;2023-04-06T08:11:10;99375.28;;;11.25;100.00
20019;BME280;10170;42.502;26.526;2023-04-06T08:13:37;99373.25;;;10.96;100.00
20019;BME280;10170;42.502;26.526;2023-04-06T08:16:04;99373.72;;;11.18;100.00
20019;BME280;10170;42.502;26.526;2023-04-06T08:18:31;99378.66;;;11.14;100.00
20019;BME280;10170;42.502;26.526;2023-04-06T08:20:58;99370.13;;;11.30;98.54
20019;BME280;10170;42.502;26.526;2023-04-06T08:23:24;99376.47;;;11.79;97.53
20019;BME280;10170;42.502;26.526;2023-04-06T08:25:51;99370.66;;;11.88;89.59
20019;BME280;10170;42.502;26.526;2023-04-06T08:28:20;99361.38;;;11.91;90.45
20019;BME280;10170;42.502;26.526;2023-04-06T08:30:47;99358.81;;;11.10;88.21
20019;BME280;10170;42.502;26.526;2023-04-06T08:33:14;99363.22;;;10.92;92.10
20019;BME280;10170;42.502;26.526;2023-04-06T08:35:42;99364.75;;;11.61;92.20
20019;BME280;10170;42.502;26.526;2023-04-06T08:38:09;99357.16;;;10.47;91.88
20019;BME280;10170;42.502;26.526;2023-04-06T08:40:37;99334.50;;;10.44;94.73
20019;BME280;10170;42.502;26.526;2023-04-06T08:43:06;99345.56;;;11.04;88.13
20019;BME280;10170;42.502;26.526;2023-04-06T08:45:35;99359.47;;;11.55;84.34
20019;BME280;10170;42.502;26.526;2023-04-06T08:48:03;99341.16;;;11.40;80.17
20019;BME280;10170;42.502;26.526;2023-04-06T08:50:32;99345.94;;;11.56;77.76
20019;BME280;10170;42.502;26.526;2023-04-06T08:52:59;99338.22;;;11.48;78.15
20019;BME280;10170;42.502;26.526;2023-04-06T08:55:27;99336.66;;;11.65;78.13
20019;BME280;10170;42.502;26.526;2023-04-06T08:57:55;99324.94;;;12.39;78.53
20019;BME280;10170;42.502;26.526;2023-04-06T09:00:22;99330.38;;;12.14;77.30
20019;BME280;10170;42.502;26.526;2023-04-06T09:02:54;99327.13;;;11.51;77.56
20019;BME280;10170;42.502;26.526;2023-04-06T09:05:24;99334.84;;;11.59;79.95
20019;BME280;10170;42.502;26.526;2023-04-06T09:07:52;99339.72;;;11.62;78.75
20019;BME280;10170;42.502;26.526;2023-04-06T09:10:18;99330.84;;;11.93;79.71
20019;BME280;10170;42.502;26.526;2023-04-06T09:12:47;99329.28;;;11.86;78.43
20019;BME280;10170;42.502;26.526;2023-04-06T09:15:21;99325.78;;;11.85;77.66
20019;BME280;10170;42.502;26.526;2023-04-06T09:17:50;99331.00;;;12.76;77.03
20019;BME280;10170;42.502;26.526;2023-04-06T09:20:25;99334.97;;;12.07;77.27
20019;BME280;10170;42.502;26.526;2023-04-06T09:22:52;99331.50;;;11.89;78.17
20019;BME280;10170;42.502;26.526;2023-04-06T09:25:21;99323.59;;;11.57;79.53
20019;BME280;10170;42.502;26.526;2023-04-06T09:28:03;99323.94;;;11.43;85.34
20019;BME280;10170;42.502;26.526;2023-04-06T09:30:30;99324.69;;;11.50;84.41
20019;BME280;10170;42.502;26.526;2023-04-06T09:32:57;99318.97;;;11.28;84.92
20019;BME280;10170;42.502;26.526;2023-04-06T09:35:26;99320.56;;;11.54;84.76
20019;BME280;10170;42.502;26.526;2023-04-06T09:37:53;99314.84;;;11.75;81.59
20019;BME280;10170;42.502;26.526;2023-04-06T09:40:20;99316.03;;;11.79;79.47
20019;BME280;10170;42.502;26.526;2023-04-06T09:42:49;99315.13;;;11.85;80.58
20019;BME280;10170;42.502;26.526;2023-04-06T09:45:20;99319.06;;;11.40;81.92
20019;BME280;10170;42.502;26.526;2023-04-06T09:47:48;99318.44;;;11.20;83.55
20019;BME280;10170;42.502;26.526;2023-04-06T09:50:17;99322.53;;;11.40;84.02
20019;BME280;10170;42.502;26.526;2023-04-06T09:52:50;99319.59;;;10.99;83.99
20019;BME280;10170;42.502;26.526;2023-04-06T09:55:33;99309.44;;;11.39;82.08
20019;BME280;10170;42.502;26.526;2023-04-06T09:58:09;99294.38;;;11.51;83.01
20019;BME280;10170;42.502;26.526;2023-04-06T10:00:52;99313.00;;;11.76;84.03
20019;BME280;10170;42.502;26.526;2023-04-06T10:08:22;99316.63;;;12.47;73.64
20019;BME280;10170;42.502;26.526;2023-04-06T10:10:51;99313.22;;;12.69;74.02
20019;BME280;10170;42.502;26.526;2023-04-06T10:13:18;99314.19;;;12.45;74.52
20019;BME280;10170;42.502;26.526;2023-04-06T10:15:46;99309.19;;;12.19;74.27
20019;BME280;10170;42.502;26.526;2023-04-06T10:18:13;99315.75;;;11.44;75.67
20019;BME280;10170;42.502;26.526;2023-04-06T10:20:51;99309.06;;;11.35;77.90
20019;BME280;10170;42.502;26.526;2023-04-06T10:23:29;99305.53;;;11.41;78.65
20019;BME280;10170;42.502;26.526;2023-04-06T10:25:59;99310.22;;;11.64;77.80
20019;BME280;10170;42.502;26.526;2023-04-06T10:28:33;99301.94;;;11.54;76.33
20019;BME280;10170;42.502;26.526;2023-04-06T10:31:04;99307.31;;;11.47;76.03
20019;BME280;10170;42.502;26.526;2023-04-06T10:33:31;99300.47;;;11.76;74.71
20019;BME280;10170;42.502;26.526;2023-04-06T10:36:12;99294.16;;;12.25;74.00
20019;BME280;10170;42.502;26.526;2023-04-06T10:38:40;99291.13;;;12.21;71.68
20019;BME280;10170;42.502;26.526;2023-04-06T10:41:09;99289.81;;;13.24;71.64
20019;BME280;10170;42.502;26.526;2023-04-06T10:43:38;99288.28;;;13.63;68.81
20019;BME280;10170;42.502;26.526;2023-04-06T10:46:07;99293.31;;;12.84;69.72
20019;BME280;10170;42.502;26.526;2023-04-06T10:48:39;99286.53;;;12.28;70.44
20019;BME280;10170;42.502;26.526;2023-04-06T10:51:10;99282.50;;;12.08;70.24
20019;BME280;10170;42.502;26.526;2023-04-06T10:53:37;99287.22;;;12.24;69.77
20019;BME280;10170;42.502;26.526;2023-04-06T10:56:09;99284.16;;;12.80;68.23
20019;BME280;10170;42.502;26.526;2023-04-06T10:58:37;99282.06;;;12.82;69.74
20019;BME280;10170;42.502;26.526;2023-04-06T11:01:04;99280.41;;;13.22;69.34
20019;BME280;10170;42.502;26.526;2023-04-06T11:03:31;99276.09;;;13.67;68.43
20019;BME280;10170;42.502;26.526;2023-04-06T11:05:58;99267.69;;;13.87;67.71
20019;BME280;10170;42.502;26.526;2023-04-06T11:08:30;99272.97;;;14.49;66.58
20019;BME280;10170;42.502;26.526;2023-04-06T11:11:12;99274.09;;;14.53;68.21
20019;BME280;10170;42.502;26.526;2023-04-06T11:13:50;99258.47;;;13.31;69.08
20019;BME280;10170;42.502;26.526;2023-04-06T11:16:19;99261.34;;;13.53;67.94
20019;BME280;10170;42.502;26.526;2023-04-06T11:19:00;99264.56;;;14.74;66.71
20019;BME280;10170;42.502;26.526;2023-04-06T11:21:47;99262.28;;;13.98;69.27
20019;BME280;10170;42.502;26.526;2023-04-06T11:24:17;99259.81;;;13.80;69.73
20019;BME280;10170;42.502;26.526;2023-04-06T11:29:19;99259.25;;;13.32;66.11
20019;BME280;10170;42.502;26.526;2023-04-06T11:31:54;99246.28;;;13.24;68.06
20019;BME280;10170;42.502;26.526;2023-04-06T11:34:25;99267.16;;;13.27;67.99
20019;BME280;10170;42.502;26.526;2023-04-06T11:36:57;99254.28;;;13.35;70.21
20019;BME280;10170;42.502;26.526;2023-04-06T11:39:26;99249.50;;;13.37;67.64
20019;BME280;10170;42.502;26.526;2023-04-06T11:41:57;99249.47;;;13.72;66.93
20019;BME280;10170;42.502;26.526;2023-04-06T11:44:34;99253.00;;;13.15;66.26
20019;BME280;10170;42.502;26.526;2023-04-06T11:47:06;99253.59;;;13.40;65.49
20019;BME280;10170;42.502;26.526;2023-04-06T11:49:36;99256.03;;;13.18;64.08
20019;BME280;10170;42.502;26.526;2023-04-06T11:54:43;99249.28;;;13.27;65.28
20019;BME280;10170;42.502;26.526;2023-04-06T11:57:10;99236.41;;;13.47;65.57
20019;BME280;10170;42.502;26.526;2023-04-06T11:59:37;99248.44;;;13.50;65.75
20019;BME280;10170;42.502;26.526;2023-04-06T12:02:04;99246.66;;;13.78;65.89
20019;BME280;10170;42.502;26.526;2023-04-06T12:04:31;99251.16;;;13.27;66.40
20019;BME280;10170;42.502;26.526;2023-04-06T12:06:58;99254.63;;;13.04;65.00
20019;BME280;10170;42.502;26.526;2023-04-06T12:09:25;99253.06;;;12.97;68.06
20019;BME280;10170;42.502;26.526;2023-04-06T12:11:52;99243.38;;;13.25;67.77
20019;BME280;10170;42.502;26.526;2023-04-06T12:14:20;99257.16;;;13.68;64.65
20019;BME280;10170;42.502;26.526;2023-04-06T12:16:47;99249.81;;;12.95;64.92
20019;BME280;10170;42.502;26.526;2023-04-06T12:19:14;99251.88;;;12.58;70.66
20019;BME280;10170;42.502;26.526;2023-04-06T12:21:41;99248.22;;;12.94;68.21
20019;BME280;10170;42.502;26.526;2023-04-06T12:24:08;99241.28;;;13.04;67.23
20019;BME280;10170;42.502;26.526;2023-04-06T12:26:35;99248.03;;;13.07;68.51
20019;BME280;10170;42.502;26.526;2023-04-06T12:29:03;99241.44;;;12.68;67.22
20019;BME280;10170;42.502;26.526;2023-04-06T12:31:37;99236.91;;;12.68;67.23
20019;BME280;10170;42.502;26.526;2023-04-06T12:34:06;99239.78;;;13.31;67.55
20019;BME280;10170;42.502;26.526;2023-04-06T12:36:33;99235.94;;;13.16;67.56
20019;BME280;10170;42.502;26.526;2023-04-06T12:39:00;99238.38;;;13.40;67.63
20019;BME280;10170;42.502;26.526;2023-04-06T12:41:28;99232.81;;;13.42;65.66
20019;BME280;10170;42.502;26.526;2023-04-06T12:43:55;99226.34;;;13.66;67.69
20019;BME280;10170;42.502;26.526;2023-04-06T12:46:23;99228.78;;;14.07;64.80
20019;BME280;10170;42.502;26.526;2023-04-06T12:48:51;99218.91;;;14.64;67.05
20019;BME280;10170;42.502;26.526;2023-04-06T12:51:20;99219.25;;;15.39;62.94
20019;BME280;10170;42.502;26.526;2023-04-06T12:53:47;99222.31;;;15.09;60.91
20019;BME280;10170;42.502;26.526;2023-04-06T12:56:18;99219.34;;;15.27;61.56
20019;BME280;10170;42.502;26.526;2023-04-06T12:58:47;99210.22;;;15.07;62.48
20019;BME280;10170;42.502;26.526;2023-04-06T13:01:14;99221.91;;;15.55;63.34
20019;BME280;10170;42.502;26.526;2023-04-06T13:03:41;99224.25;;;16.65;59.85